sensor_id;sensor_type;location;lat;lon;timestamp;pressure;altitude;pressure_sealevel;temperature;humidity
66398;BME280;54877;51.504;3.894;2023-06-24T00:01:24;102505.22;;;22.99;51.58
66398;BME280;54877;51.504;3.894;2023-06-24T00:03:50;102504.34;;;22.99;51.53
66398;BME280;54877;51.504;3.894;2023-06-24T00:06:21;102498.38;;;22.83;52.33
66398;BME280;54877;51.504;3.894;2023-06-24T00:08:48;102502.47;;;22.88;52.18
66398;BME280;54877;51.504;3.894;2023-06-24T00:11:14;102504.06;;;22.91;52.09
66398;BME280;54877;51.504;3.894;2023-06-24T00:13:40;102507.13;;;22.86;52.07
66398;BME280;54877;51.504;3.894;2023-06-24T00:16:06;102498.44;;;22.70;52.45
66398;BME280;54877;51.504;3.894;2023-06-24T00:18:31;102493.56;;;22.75;51.70
66398;BME280;54877;51.504;3.894;2023-06-24T00:20:57;102497.22;;;22.74;51.86
66398;BME280;54877;51.504;3.894;2023-06-24T00:23:23;102493.66;;;22.73;51.70
66398;BME280;54877;51.504;3.894;2023-06-24T00:25:50;102501.88;;;22.72;51.60
66398;BME280;54877;51.504;3.894;2023-06-24T00:28:16;102500.16;;;22.71;51.51
66398;BME280;54877;51.504;3.894;2023-06-24T00:30:41;102500.28;;;22.69;51.16
66398;BME280;54877;51.504;3.894;2023-06-24T00:33:07;102494.97;;;22.68;51.45
66398;BME280;54877;51.504;3.894;2023-06-24T00:35:35;102488.38;;;22.72;51.14
66398;BME280;54877;51.504;3.894;2023-06-24T00:38:02;102504.59;;;22.72;50.87
66398;BME280;54877;51.504;3.894;2023-06-24T00:40:28;102502.47;;;22.64;50.83
66398;BME280;54877;51.504;3.894;2023-06-24T00:42:54;102503.31;;;22.65;50.70
66398;BME280;54877;51.504;3.894;2023-06-24T00:45:20;102498.91;;;22.64;50.49
66398;BME280;54877;51.504;3.894;2023-06-24T00:47:46;102502.53;;;22.63;50.67
66398;BME280;54877;51.504;3.894;2023-06-24T00:50:12;102502.75;;;22.60;50.22
66398;BME280;54877;51.504;3.894;2023-06-24T00:52:38;102508.16;;;22.60;50.51
66398;BME280;54877;51.504;3.894;2023-06-24T00:55:07;102497.56;;;22.57;50.43
66398;BME280;54877;51.504;3.894;2023-06-24T00:57:34;102502.00;;;22.58;50.51
66398;BME280;54877;51.504;3.894;2023-06-24T01:00:02;102501.88;;;22.59;50.54
66398;BME280;54877;51.504;3.894;2023-06-24T01:02:31;102501.28;;;22.56;50.62
66398;BME280;54877;51.504;3.894;2023-06-24T01:04:57;102508.59;;;22.54;50.18
66398;BME280;54877;51.504;3.894;2023-06-24T01:07:22;102504.28;;;22.51;50.46
66398;BME280;54877;51.504;3.894;2023-06-24T01:09:48;102507.97;;;22.50;50.32
66398;BME280;54877;51.504;3.894;2023-06-24T01:12:14;102503.03;;;22.32;50.45
66398;BME280;54877;51.504;3.894;2023-06-24T01:14:39;102496.13;;;22.40;50.15
66398;BME280;54877;51.504;3.894;2023-06-24T01:19:37;102491.81;;;22.38;50.23
66398;BME280;54877;51.504;3.894;2023-06-24T01:34:06;102483.53;;;22.15;49.98
66398;BME280;54877;51.504;3.894;2023-06-24T01:36:34;102493.59;;;22.13;49.98
66398;BME280;54877;51.504;3.894;2023-06-24T01:39:04;102485.72;;;22.10;49.77
66398;BME280;54877;51.504;3.894;2023-06-24T01:41:44;102483.97;;;22.09;50.19
66398;BME280;54877;51.504;3.894;2023-06-24T01:44:16;102492.84;;;22.11;49.94
66398;BME280;54877;51.504;3.894;2023-06-24T01:46:43;102491.84;;;22.12;50.19
66398;BME280;54877;51.504;3.894;2023-06-24T01:49:12;102488.63;;;22.07;50.23
66398;BME280;54877;51.504;3.894;2023-06-24T01:51:39;102491.47;;;22.06;50.18
66398;BME280;54877;51.504;3.894;2023-06-24T01:54:07;102485.63;;;21.99;50.30
66398;BME280;54877;51.504;3.894;2023-06-24T01:56:39;102488.09;;;22.02;50.50
66398;BME280;54877;51.504;3.894;2023-06-24T01:59:08;102487.97;;;22.04;50.70
66398;BME280;54877;51.504;3.894;2023-06-24T02:01:35;102480.22;;;21.99;50.83
66398;BME280;54877;51.504;3.894;2023-06-24T02:04:03;102484.00;;;21.97;50.67
66398;BME280;54877;51.504;3.894;2023-06-24T02:06:33;102484.97;;;21.96;50.96
66398;BME280;54877;51.504;3.894;2023-06-24T02:09:02;102489.53;;;21.95;50.95
66398;BME280;54877;51.504;3.894;2023-06-24T02:11:29;102486.06;;;21.93;51.09
66398;BME280;54877;51.504;3.894;2023-06-24T02:13:56;102486.94;;;21.94;50.88
66398;BME280;54877;51.504;3.894;2023-06-24T02:16:26;102485.31;;;21.91;51.05
66398;BME280;54877;51.504;3.894;2023-06-24T02:18:52;102479.19;;;21.89;51.28
66398;BME280;54877;51.504;3.894;2023-06-24T02:21:20;102479.19;;;21.89;51.19
66398;BME280;54877;51.504;3.894;2023-06-24T02:23:47;102478.31;;;21.89;51.36
66398;BME280;54877;51.504;3.894;2023-06-24T02:26:13;102481.97;;;21.88;51.17
66398;BME280;54877;51.504;3.894;2023-06-24T02:28:40;102483.44;;;21.79;51.17
66398;BME280;54877;51.504;3.894;2023-06-24T02:31:09;102477.72;;;21.71;51.62
66398;BME280;54877;51.504;3.894;2023-06-24T02:33:37;102471.81;;;21.66;51.62
66398;BME280;54877;51.504;3.894;2023-06-24T02:36:02;102467.72;;;21.60;51.68
66398;BME280;54877;51.504;3.894;2023-06-24T02:38:28;102469.75;;;21.57;51.94
66398;BME280;54877;51.504;3.894;2023-06-24T02:40:53;102475.03;;;21.46;52.04
66398;BME280;54877;51.504;3.894;2023-06-24T02:43:19;102477.19;;;21.28;52.64
66398;BME280;54877;51.504;3.894;2023-06-24T02:45:45;102467.91;;;21.32;52.55
66398;BME280;54877;51.504;3.894;2023-06-24T02:48:12;102472.34;;;21.33;52.55
66398;BME280;54877;51.504;3.894;2023-06-24T02:50:39;102477.41;;;21.38;52.64
66398;BME280;54877;51.504;3.894;2023-06-24T02:53:08;102475.69;;;21.37;52.63
66398;BME280;54877;51.504;3.894;2023-06-24T02:55:35;102471.91;;;21.39;52.66
66398;BME280;54877;51.504;3.894;2023-06-24T02:58:02;102474.81;;;21.36;52.74
66398;BME280;54877;51.504;3.894;2023-06-24T03:00:30;102469.63;;;21.33;52.81
66398;BME280;54877;51.504;3.894;2023-06-24T03:02:58;102477.41;;;21.38;52.76
66398;BME280;54877;51.504;3.894;2023-06-24T03:05:25;102478.38;;;21.37;52.70
66398;BME280;54877;51.504;3.894;2023-06-24T03:07:51;102476.66;;;21.36;52.92
66398;BME280;54877;51.504;3.894;2023-06-24T03:10:17;102471.78;;;21.28;53.35
66398;BME280;54877;51.504;3.894;2023-06-24T03:12:42;102476.31;;;21.28;53.12
66398;BME280;54877;51.504;3.894;2023-06-24T03:15:08;102479.97;;;21.27;53.26
66398;BME280;54877;51.504;3.894;2023-06-24T03:17:34;102474.56;;;21.27;53.25
66398;BME280;54877;51.504;3.894;2023-06-24T03:20:00;102470.19;;;21.26;53.30
66398;BME280;54877;51.504;3.894;2023-06-24T03:22:25;102472.88;;;21.26;53.65
66398;BME280;54877;51.504;3.894;2023-06-24T03:24:51;102471.03;;;21.26;53.45
66398;BME280;54877;51.504;3.894;2023-06-24T03:27:18;102472.88;;;21.26;53.47
66398;BME280;54877;51.504;3.894;2023-06-24T03:29:43;102475.34;;;21.29;53.47
66398;BME280;54877;51.504;3.894;2023-06-24T03:32:09;102470.91;;;21.28;53.47
66398;BME280;54877;51.504;3.894;2023-06-24T03:34:34;102476.53;;;21.25;53.86
66398;BME280;54877;51.504;3.894;2023-06-24T03:37:00;102471.13;;;21.25;53.63
66398;BME280;54877;51.504;3.894;2023-06-24T03:39:25;102480.63;;;21.18;53.89
66398;BME280;54877;51.504;3.894;2023-06-24T03:41:51;102470.03;;;21.15;54.21
66398;BME280;54877;51.504;3.894;2023-06-24T03:44:16;102482.47;;;21.03;54.45
66398;BME280;54877;51.504;3.894;2023-06-24T03:46:41;102473.72;;;20.99;54.48
66398;BME280;54877;51.504;3.894;2023-06-24T03:49:07;102477.69;;;20.94;54.51
66398;BME280;54877;51.504;3.894;2023-06-24T03:51:33;102478.47;;;20.96;54.64
66398;BME280;54877;51.504;3.894;2023-06-24T03:53:58;102475.66;;;20.97;54.60
66398;BME280;54877;51.504;3.894;2023-06-24T03:56:24;102471.25;;;20.96;54.77
66398;BME280;54877;51.504;3.894;2023-06-24T03:58:49;102470.16;;;20.99;54.75
66398;BME280;54877;51.504;3.894;2023-06-24T04:01:15;102474.81;;;20.97;54.99
66398;BME280;54877;51.504;3.894;2023-06-24T04:03:43;102473.38;;;20.91;54.92
66398;BME280;54877;51.504;3.894;2023-06-24T04:06:09;102469.75;;;20.92;55.08
66398;BME280;54877;51.504;3.894;2023-06-24T04:08:34;102466.06;;;20.93;55.17
66398;BME280;54877;51.504;3.894;2023-06-24T04:11:00;102478.56;;;20.94;55.13
66398;BME280;54877;51.504;3.894;2023-06-24T04:13:27;102470.28;;;20.97;55.16
66398;BME280;54877;51.504;3.894;2023-06-24T04:15:52;102463.94;;;20.98;55.18
66398;BME280;54877;51.504;3.894;2023-06-24T04:18:18;102474.50;;;21.01;55.10
66398;BME280;54877;51.504;3.894;2023-06-24T04:20:44;102473.19;;;20.94;55.39
66398;BME280;54877;51.504;3.894;2023-06-24T04:23:10;102477.13;;;20.76;56.17
66398;BME280;54877;51.504;3.894;2023-06-24T04:25:36;102478.09;;;20.88;55.75
66398;BME280;54877;51.504;3.894;2023-06-24T04:28:02;102478.34;;;20.85;55.98
66398;BME280;54877;51.504;3.894;2023-06-24T04:30:29;102480.22;;;20.70;56.28
66398;BME280;54877;51.504;3.894;2023-06-24T04:32:55;102491.56;;;20.61;56.81
66398;BME280;54877;51.504;3.894;2023-06-24T04:35:20;102489.88;;;20.60;56.86
66398;BME280;54877;51.504;3.894;2023-06-24T04:37:46;102495.66;;;20.54;57.06
66398;BME280;54877;51.504;3.894;2023-06-24T04:40:11;102490.97;;;20.43;57.63
66398;BME280;54877;51.504;3.894;2023-06-24T04:42:38;102492.88;;;20.41;57.94
66398;BME280;54877;51.504;3.894;2023-06-24T04:45:04;102488.50;;;20.67;57.65
66398;BME280;54877;51.504;3.894;2023-06-24T04:47:30;102497.66;;;20.77;57.15
66398;BME280;54877;51.504;3.894;2023-06-24T04:49:55;102491.66;;;20.74;57.58
66398;BME280;54877;51.504;3.894;2023-06-24T04:52:23;102496.31;;;20.84;57.75
66398;BME280;54877;51.504;3.894;2023-06-24T04:54:48;102500.84;;;21.11;57.01
66398;BME280;54877;51.504;3.894;2023-06-24T04:57:23;102491.41;;;21.30;56.34
66398;BME280;54877;51.504;3.894;2023-06-24T04:59:51;102494.34;;;21.40;56.33
66398;BME280;54877;51.504;3.894;2023-06-24T05:02:16;102505.25;;;21.51;56.22
66398;BME280;54877;51.504;3.894;2023-06-24T05:04:41;102498.78;;;21.66;55.87
66398;BME280;54877;51.504;3.894;2023-06-24T05:07:07;102498.16;;;21.88;55.72
66398;BME280;54877;51.504;3.894;2023-06-24T05:09:32;102491.44;;;21.93;55.44
66398;BME280;54877;51.504;3.894;2023-06-24T05:11:57;102492.72;;;22.26;55.10
66398;BME280;54877;51.504;3.894;2023-06-24T05:14:23;102491.38;;;22.44;54.84
66398;BME280;54877;51.504;3.894;2023-06-24T05:16:48;102497.22;;;22.74;54.22
66398;BME280;54877;51.504;3.894;2023-06-24T05:19:13;102495.88;;;23.03;53.73
66398;BME280;54877;51.504;3.894;2023-06-24T05:21:39;102495.50;;;23.31;52.88
66398;BME280;54877;51.504;3.894;2023-06-24T05:24:04;102496.06;;;23.48;52.31
66398;BME280;54877;51.504;3.894;2023-06-24T05:26:30;102499.03;;;23.56;52.24
66398;BME280;54877;51.504;3.894;2023-06-24T05:28:55;102502.53;;;23.80;51.59
66398;BME280;54877;51.504;3.894;2023-06-24T05:31:21;102509.91;;;24.00;51.23
66398;BME280;54877;51.504;3.894;2023-06-24T05:33:46;102508.44;;;23.85;51.61
66398;BME280;54877;51.504;3.894;2023-06-24T05:36:11;102513.97;;;24.06;51.21
66398;BME280;54877;51.504;3.894;2023-06-24T05:38:37;102504.53;;;24.22;50.77
66398;BME280;54877;51.504;3.894;2023-06-24T05:41:02;102512.66;;;24.22;50.70
66398;BME280;54877;51.504;3.894;2023-06-24T05:43:27;102513.91;;;24.18;50.91
66398;BME280;54877;51.504;3.894;2023-06-24T05:45:53;102518.19;;;24.21;51.22
66398;BME280;54877;51.504;3.894;2023-06-24T05:48:18;102510.44;;;24.38;51.22
66398;BME280;54877;51.504;3.894;2023-06-24T05:50:44;102512.25;;;24.60;50.67
66398;BME280;54877;51.504;3.894;2023-06-24T05:53:09;102516.78;;;24.71;50.26
66398;BME280;54877;51.504;3.894;2023-06-24T05:55:34;102514.34;;;24.57;50.42
66398;BME280;54877;51.504;3.894;2023-06-24T05:58:00;102513.06;;;24.72;50.29
66398;BME280;54877;51.504;3.894;2023-06-24T06:00:25;102504.09;;;24.82;50.43
66398;BME280;54877;51.504;3.894;2023-06-24T06:02:50;102510.81;;;24.99;50.54
66398;BME280;54877;51.504;3.894;2023-06-24T06:05:16;102507.69;;;25.03;49.96
66398;BME280;54877;51.504;3.894;2023-06-24T06:07:41;102516.41;;;25.18;50.06
66398;BME280;54877;51.504;3.894;2023-06-24T06:10:08;102518.78;;;25.32;50.16
66398;BME280;54877;51.504;3.894;2023-06-24T06:12:34;102521.16;;;25.46;49.57
66398;BME280;54877;51.504;3.894;2023-06-24T06:14:59;102521.88;;;25.59;49.84
66398;BME280;54877;51.504;3.894;2023-06-24T06:17:25;102519.72;;;25.63;49.81
66398;BME280;54877;51.504;3.894;2023-06-24T06:19:50;102517.53;;;25.78;48.96
66398;BME280;54877;51.504;3.894;2023-06-24T06:22:15;102512.91;;;25.89;48.76
66398;BME280;54877;51.504;3.894;2023-06-24T06:24:41;102514.81;;;25.98;49.49
66398;BME280;54877;51.504;3.894;2023-06-24T06:27:09;102511.25;;;25.98;48.80
66398;BME280;54877;51.504;3.894;2023-06-24T06:29:36;102501.28;;;26.08;49.00
66398;BME280;54877;51.504;3.894;2023-06-24T06:32:01;102512.03;;;25.89;48.73
66398;BME280;54877;51.504;3.894;2023-06-24T06:34:27;102509.94;;;25.72;49.44
66398;BME280;54877;51.504;3.894;2023-06-24T06:36:52;102508.16;;;25.82;49.62
66398;BME280;54877;51.504;3.894;2023-06-24T06:39:17;102512.22;;;25.97;49.56
66398;BME280;54877;51.504;3.894;2023-06-24T06:41:43;102519.56;;;26.06;49.08
66398;BME280;54877;51.504;3.894;2023-06-24T06:44:08;102519.28;;;26.09;48.84
66398;BME280;54877;51.504;3.894;2023-06-24T06:46:33;102509.09;;;26.22;48.59
66398;BME280;54877;51.504;3.894;2023-06-24T06:48:59;102509.41;;;26.29;48.81
66398;BME280;54877;51.504;3.894;2023-06-24T06:51:25;102520.25;;;26.29;48.82
66398;BME280;54877;51.504;3.894;2023-06-24T06:53:50;102519.28;;;26.39;48.73
66398;BME280;54877;51.504;3.894;2023-06-24T06:56:21;102522.63;;;26.52;48.24
66398;BME280;54877;51.504;3.894;2023-06-24T06:58:49;102531.34;;;26.16;48.63
66398;BME280;54877;51.504;3.894;2023-06-24T07:01:14;102520.22;;;26.59;48.61
66398;BME280;54877;51.504;3.894;2023-06-24T07:03:40;102526.44;;;26.80;48.23
66398;BME280;54877;51.504;3.894;2023-06-24T07:06:05;102513.84;;;26.89;47.97
66398;BME280;54877;51.504;3.894;2023-06-24T07:08:31;102520.84;;;26.91;47.54
66398;BME280;54877;51.504;3.894;2023-06-24T07:10:56;102524.59;;;27.00;48.11
66398;BME280;54877;51.504;3.894;2023-06-24T07:13:21;102522.47;;;27.03;47.59
66398;BME280;54877;51.504;3.894;2023-06-24T07:15:47;102526.31;;;27.10;47.90
66398;BME280;54877;51.504;3.894;2023-06-24T07:18:12;102519.31;;;27.08;47.21
66398;BME280;54877;51.504;3.894;2023-06-24T07:20:37;102518.72;;;27.33;47.48
66398;BME280;54877;51.504;3.894;2023-06-24T07:23:03;102528.44;;;27.26;47.40
66398;BME280;54877;51.504;3.894;2023-06-24T07:25:29;102521.91;;;27.48;47.28
66398;BME280;54877;51.504;3.894;2023-06-24T07:27:55;102528.47;;;27.55;47.25
66398;BME280;54877;51.504;3.894;2023-06-24T07:30:20;102526.44;;;27.66;46.95
66398;BME280;54877;51.504;3.894;2023-06-24T07:32:45;102533.31;;;27.61;46.86
66398;BME280;54877;51.504;3.894;2023-06-24T07:35:11;102522.41;;;27.70;47.09
66398;BME280;54877;51.504;3.894;2023-06-24T07:37:38;102525.56;;;27.75;46.79
66398;BME280;54877;51.504;3.894;2023-06-24T07:40:04;102530.69;;;27.78;46.00
66398;BME280;54877;51.504;3.894;2023-06-24T07:42:30;102522.69;;;27.86;46.50
66398;BME280;54877;51.504;3.894;2023-06-24T07:44:56;102529.22;;;27.93;46.73
66398;BME280;54877;51.504;3.894;2023-06-24T07:47:21;102537.50;;;28.02;46.53
66398;BME280;54877;51.504;3.894;2023-06-24T07:49:46;102534.47;;;28.14;46.59
66398;BME280;54877;51.504;3.894;2023-06-24T07:52:12;102536.97;;;28.08;45.78
66398;BME280;54877;51.504;3.894;2023-06-24T07:54:37;102533.38;;;27.97;45.89
66398;BME280;54877;51.504;3.894;2023-06-24T07:57:03;102537.50;;;28.02;46.43
66398;BME280;54877;51.504;3.894;2023-06-24T07:59:28;102542.09;;;28.01;46.98
66398;BME280;54877;51.504;3.894;2023-06-24T08:01:54;102538.09;;;27.95;47.62
66398;BME280;54877;51.504;3.894;2023-06-24T08:04:19;102539.22;;;28.12;47.00
66398;BME280;54877;51.504;3.894;2023-06-24T08:06:45;102533.19;;;28.18;46.50
66398;BME280;54877;51.504;3.894;2023-06-24T08:09:10;102527.91;;;28.17;46.51
66398;BME280;54877;51.504;3.894;2023-06-24T08:11:36;102533.75;;;28.22;46.89
66398;BME280;54877;51.504;3.894;2023-06-24T08:14:01;102529.19;;;28.13;46.56
66398;BME280;54877;51.504;3.894;2023-06-24T08:16:27;102534.06;;;28.19;46.04
66398;BME280;54877;51.504;3.894;2023-06-24T08:18:52;102542.03;;;28.30;46.73
66398;BME280;54877;51.504;3.894;2023-06-24T08:21:18;102535.25;;;28.34;45.85
66398;BME280;54877;51.504;3.894;2023-06-24T08:23:43;102534.56;;;28.32;46.41
66398;BME280;54877;51.504;3.894;2023-06-24T08:26:09;102528.00;;;28.25;46.24
66398;BME280;54877;51.504;3.894;2023-06-24T08:28:35;102532.13;;;28.29;46.47
66398;BME280;54877;51.504;3.894;2023-06-24T08:31:00;102536.28;;;28.33;45.98
66398;BME280;54877;51.504;3.894;2023-06-24T08:33:26;102529.81;;;28.34;46.68
66398;BME280;54877;51.504;3.894;2023-06-24T08:35:51;102529.31;;;28.48;46.51
66398;BME280;54877;51.504;3.894;2023-06-24T08:38:16;102537.69;;;28.64;46.33
66398;BME280;54877;51.504;3.894;2023-06-24T08:40:42;102534.06;;;28.73;46.51
66398;BME280;54877;51.504;3.894;2023-06-24T08:43:09;102535.41;;;28.87;46.76
66398;BME280;54877;51.504;3.894;2023-06-24T08:45:34;102534.09;;;28.91;45.87
66398;BME280;54877;51.504;3.894;2023-06-24T08:48:00;102535.72;;;29.01;45.32
66398;BME280;54877;51.504;3.894;2023-06-24T08:50:31;102539.53;;;28.73;45.31
66398;BME280;54877;51.504;3.894;2023-06-24T08:53:02;102534.53;;;28.86;45.25
66398;BME280;54877;51.504;3.894;2023-06-24T08:55:31;102531.19;;;28.75;45.55
66398;BME280;54877;51.504;3.894;2023-06-24T08:58:02;102531.50;;;28.89;45.34
66398;BME280;54877;51.504;3.894;2023-06-24T09:00:27;102532.00;;;29.02;45.36
66398;BME280;54877;51.504;3.894;2023-06-24T09:02:53;102537.22;;;29.13;44.83
66398;BME280;54877;51.504;3.894;2023-06-24T09:05:18;102534.81;;;29.10;45.28
66398;BME280;54877;51.504;3.894;2023-06-24T09:07:43;102528.94;;;29.05;45.87
66398;BME280;54877;51.504;3.894;2023-06-24T09:10:09;102524.03;;;29.09;45.74
66398;BME280;54877;51.504;3.894;2023-06-24T09:12:34;102526.84;;;29.17;45.89
66398;BME280;54877;51.504;3.894;2023-06-24T09:15:00;102520.38;;;29.36;45.84
66398;BME280;54877;51.504;3.894;2023-06-24T09:17:27;102517.66;;;29.36;45.63
66398;BME280;54877;51.504;3.894;2023-06-24T09:19:53;102524.50;;;29.57;45.52
66398;BME280;54877;51.504;3.894;2023-06-24T09:22:28;102519.50;;;29.53;44.87
66398;BME280;54877;51.504;3.894;2023-06-24T09:24:54;102520.38;;;29.36;45.28
66398;BME280;54877;51.504;3.894;2023-06-24T09:27:19;102524.66;;;29.56;44.42
66398;BME280;54877;51.504;3.894;2023-06-24T09:29:45;102517.59;;;29.71;44.33
66398;BME280;54877;51.504;3.894;2023-06-24T09:32:12;102523.03;;;29.89;44.08
66398;BME280;54877;51.504;3.894;2023-06-24T09:34:37;102523.84;;;29.81;43.73
66398;BME280;54877;51.504;3.894;2023-06-24T09:37:03;102517.97;;;29.76;44.22
66398;BME280;54877;51.504;3.894;2023-06-24T09:39:34;102514.38;;;29.76;44.29
66398;BME280;54877;51.504;3.894;2023-06-24T09:42:05;102524.63;;;29.99;44.77
66398;BME280;54877;51.504;3.894;2023-06-24T09:44:33;102523.97;;;30.05;43.92
66398;BME280;54877;51.504;3.894;2023-06-24T09:46:58;102518.09;;;29.92;43.69
66398;BME280;54877;51.504;3.894;2023-06-24T09:49:24;102515.41;;;30.00;43.32
66398;BME280;54877;51.504;3.894;2023-06-24T09:51:50;102522.63;;;30.09;43.76
66398;BME280;54877;51.504;3.894;2023-06-24T09:54:20;102525.38;;;30.09;43.92
66398;BME280;54877;51.504;3.894;2023-06-24T09:56:49;102522.22;;;29.53;43.93
66398;BME280;54877;51.504;3.894;2023-06-24T09:59:17;102527.69;;;29.53;43.98
66398;BME280;54877;51.504;3.894;2023-06-24T10:01:44;102516.97;;;29.34;44.51
66398;BME280;54877;51.504;3.894;2023-06-24T10:04:15;102523.84;;;29.38;44.66
66398;BME280;54877;51.504;3.894;2023-06-24T10:06:41;102520.53;;;29.52;45.32
66398;BME280;54877;51.504;3.894;2023-06-24T10:09:07;102512.09;;;29.63;45.14
66398;BME280;54877;51.504;3.894;2023-06-24T10:11:33;102505.09;;;29.60;44.43
66398;BME280;54877;51.504;3.894;2023-06-24T10:13:59;102505.84;;;29.27;44.71
66398;BME280;54877;51.504;3.894;2023-06-24T10:16:25;102507.84;;;29.43;44.70
66398;BME280;54877;51.504;3.894;2023-06-24T10:18:50;102517.72;;;29.08;44.94
66398;BME280;54877;51.504;3.894;2023-06-24T10:21:16;102506.66;;;29.28;45.58
66398;BME280;54877;51.504;3.894;2023-06-24T10:26:25;102506.34;;;29.31;45.05
66398;BME280;54877;51.504;3.894;2023-06-24T10:40:01;102497.09;;;29.67;44.79
66398;BME280;54877;51.504;3.894;2023-06-24T10:42:36;102492.06;;;29.80;43.87
66398;BME280;54877;51.504;3.894;2023-06-24T10:47:33;102478.25;;;30.07;42.80
66398;BME280;54877;51.504;3.894;2023-06-24T10:50:00;102478.47;;;30.30;42.87
66398;BME280;54877;51.504;3.894;2023-06-24T10:52:25;102479.66;;;30.19;42.42
66398;BME280;54877;51.504;3.894;2023-06-24T10:54:51;102474.75;;;30.31;41.64
66398;BME280;54877;51.504;3.894;2023-06-24T10:57:23;102476.59;;;30.22;41.85
66398;BME280;54877;51.504;3.894;2023-06-24T10:59:53;102479.53;;;29.95;42.93
66398;BME280;54877;51.504;3.894;2023-06-24T11:02:20;102476.34;;;30.08;41.85
66398;BME280;54877;51.504;3.894;2023-06-24T11:04:50;102481.25;;;29.96;41.94
66398;BME280;54877;51.504;3.894;2023-06-24T11:07:17;102481.50;;;30.19;42.29
66398;BME280;54877;51.504;3.894;2023-06-24T11:09:48;102474.22;;;30.36;41.82
66398;BME280;54877;51.504;3.894;2023-06-24T11:12:15;102477.41;;;30.49;42.41
66398;BME280;54877;51.504;3.894;2023-06-24T11:14:40;102472.28;;;30.46;42.02
66398;BME280;54877;51.504;3.894;2023-06-24T11:17:06;102463.75;;;30.57;41.07
66398;BME280;54877;51.504;3.894;2023-06-24T11:19:31;102467.78;;;30.37;41.01
66398;BME280;54877;51.504;3.894;2023-06-24T11:22:00;102471.06;;;30.48;41.77
66398;BME280;54877;51.504;3.894;2023-06-24T11:24:29;102469.38;;;30.63;41.28
66398;BME280;54877;51.504;3.894;2023-06-24T11:26:54;102465.44;;;30.58;40.35
66398;BME280;54877;51.504;3.894;2023-06-24T11:29:21;102466.69;;;30.79;39.61
66398;BME280;54877;51.504;3.894;2023-06-24T11:31:47;102463.13;;;30.79;40.32
66398;BME280;54877;51.504;3.894;2023-06-24T11:34:13;102469.25;;;30.73;40.79
66398;BME280;54877;51.504;3.894;2023-06-24T11:36:38;102458.81;;;30.68;40.18
66398;BME280;54877;51.504;3.894;2023-06-24T11:39:03;102459.00;;;30.83;41.02
66398;BME280;54877;51.504;3.894;2023-06-24T11:41:29;102464.13;;;30.86;39.89
66398;BME280;54877;51.504;3.894;2023-06-24T11:43:54;102457.69;;;30.95;40.51
66398;BME280;54877;51.504;3.894;2023-06-24T11:46:26;102451.03;;;30.98;40.98
66398;BME280;54877;51.504;3.894;2023-06-24T11:49:08;102448.63;;;31.03;40.34
66398;BME280;54877;51.504;3.894;2023-06-24T11:51:34;102446.75;;;31.03;40.08
66398;BME280;54877;51.504;3.894;2023-06-24T11:54:01;102454.94;;;31.19;40.05
66398;BME280;54877;51.504;3.894;2023-06-24T11:56:37;102453.56;;;31.15;39.82
66398;BME280;54877;51.504;3.894;2023-06-24T11:59:04;102448.94;;;31.16;39.32
66398;BME280;54877;51.504;3.894;2023-06-24T12:01:31;102442.97;;;30.96;39.70
66398;BME280;54877;51.504;3.894;2023-06-24T12:03:57;102434.75;;;31.04;39.89
66398;BME280;54877;51.504;3.894;2023-06-24T12:06:22;102436.47;;;31.05;39.75
66398;BME280;54877;51.504;3.894;2023-06-24T12:08:47;102441.81;;;30.99;39.89
66398;BME280;54877;51.504;3.894;2023-06-24T12:11:13;102428.91;;;30.83;39.77
66398;BME280;54877;51.504;3.894;2023-06-24T12:13:38;102428.59;;;31.10;39.92
66398;BME280;54877;51.504;3.894;2023-06-24T12:16:04;102433.22;;;31.10;40.17
66398;BME280;54877;51.504;3.894;2023-06-24T12:18:29;102432.72;;;31.22;40.21
66398;BME280;54877;51.504;3.894;2023-06-24T12:20:55;102421.56;;;31.24;39.37
66398;BME280;54877;51.504;3.894;2023-06-24T12:23:21;102428.06;;;30.74;40.07
66398;BME280;54877;51.504;3.894;2023-06-24T12:25:46;102422.75;;;30.65;39.67
66398;BME280;54877;51.504;3.894;2023-06-24T12:28:11;102427.50;;;30.47;39.41
66398;BME280;54877;51.504;3.894;2023-06-24T12:30:37;102418.97;;;30.58;39.90
66398;BME280;54877;51.504;3.894;2023-06-24T12:33:02;102421.22;;;30.70;39.97
66398;BME280;54877;51.504;3.894;2023-06-24T12:35:28;102420.56;;;30.76;40.13
66398;BME280;54877;51.504;3.894;2023-06-24T12:37:53;102428.38;;;30.71;39.89
66398;BME280;54877;51.504;3.894;2023-06-24T12:40:19;102416.47;;;31.05;39.10
66398;BME280;54877;51.504;3.894;2023-06-24T12:42:44;102415.56;;;30.80;38.64
66398;BME280;54877;51.504;3.894;2023-06-24T12:45:10;102420.72;;;30.91;38.86
66398;BME280;54877;51.504;3.894;2023-06-24T12:47:35;102409.44;;;30.86;38.89
66398;BME280;54877;51.504;3.894;2023-06-24T12:50:00;102416.66;;;31.03;38.51
66398;BME280;54877;51.504;3.894;2023-06-24T12:52:26;102413.56;;;31.14;38.28
66398;BME280;54877;51.504;3.894;2023-06-24T12:54:51;102400.56;;;31.16;38.47
66398;BME280;54877;51.504;3.894;2023-06-24T12:57:17;102396.47;;;31.20;38.61
66398;BME280;54877;51.504;3.894;2023-06-24T12:59:42;102402.28;;;31.17;37.66
66398;BME280;54877;51.504;3.894;2023-06-24T13:02:07;102389.63;;;31.00;38.13
66398;BME280;54877;51.504;3.894;2023-06-24T13:04:33;102397.13;;;30.82;38.01
66398;BME280;54877;51.504;3.894;2023-06-24T13:06:58;102389.44;;;30.94;38.39
66398;BME280;54877;51.504;3.894;2023-06-24T13:09:24;102392.69;;;31.05;39.24
66398;BME280;54877;51.504;3.894;2023-06-24T13:11:49;102387.41;;;31.12;39.00
66398;BME280;54877;51.504;3.894;2023-06-24T13:14:15;102386.34;;;30.89;38.04
66398;BME280;54877;51.504;3.894;2023-06-24T13:16:41;102381.44;;;30.92;38.35